Time;durP1;ratioP1;P1;durP2;ratioP2;P2;SDS_P1;SDS_P2;PMS_P1;PMS_P2;Temp;Humidity;BMP_temperature;BMP_pressure;BME280_temperature;BME280_humidity;BME280_pressure;Samples;Min_cycle;Max_cycle;Signal;HPM_P1;HPM_P2
2021/06/08 00:00:22;;;;;;;19.27;16.83;;;;;;;14.31;69.25;99160.78;125063;1093;64284;-82
2021/06/08 00:03:09;;;;;;;18.10;16.13;;;;;;;14.23;69.43;99164.06;125134;1093;64904;-82
2021/06/08 00:05:36;;;;;;;19.17;16.97;;;;;;;14.17;69.59;99168.09;125125;1093;64274;-82
2021/06/08 00:08:04;;;;;;;19.63;16.70;;;;;;;14.13;69.75;99163.08;125222;1092;64447;-82
2021/06/08 00:10:31;;;;;;;17.00;15.30;;;;;;;14.11;69.78;99165.02;125031;1093;64274;-84
2021/06/08 00:12:59;;;;;;;20.67;16.97;;;;;;;14.07;69.89;99158.22;124822;1093;64341;-83
2021/06/08 00:15:26;;;;;;;20.67;16.10;;;;;;;14.05;70.02;99163.69;124866;1093;64293;-82
2021/06/08 00:17:53;;;;;;;18.33;15.57;;;;;;;14.02;70.10;99158.57;124837;1093;64421;-82
2021/06/08 00:20:21;;;;;;;20.10;16.57;;;;;;;13.97;70.12;99158.08;124868;1093;64377;-81
2021/06/08 00:22:48;;;;;;;17.63;15.50;;;;;;;13.91;70.20;99159.41;124844;1093;64268;-81
2021/06/08 00:25:15;;;;;;;19.40;16.10;;;;;;;13.86;70.38;99155.39;124860;1093;64351;-81
2021/06/08 00:27:43;;;;;;;19.43;16.17;;;;;;;13.78;70.37;99158.66;124874;1092;64264;-81
2021/06/08 00:30:11;;;;;;;22.20;17.93;;;;;;;13.73;70.58;99161.69;124870;1091;64338;-81
2021/06/08 00:32:39;;;;;;;17.53;15.73;;;;;;;13.70;70.67;99158.41;124802;1093;64206;-82
2021/06/08 00:35:07;;;;;;;21.50;18.75;;;;;;;13.68;70.77;99150.48;124866;1093;64363;-82
2021/06/08 00:37:36;;;;;;;21.65;17.95;;;;;;;13.68;70.81;99155.83;124913;1093;64220;-82
2021/06/08 00:40:05;;;;;;;19.57;17.50;;;;;;;13.65;70.96;99150.72;124935;1093;64254;-80
2021/06/08 00:42:35;;;;;;;20.00;17.97;;;;;;;13.60;71.05;99148.39;124933;1093;64272;-81
2021/06/08 00:45:07;;;;;;;19.03;17.03;;;;;;;13.57;71.07;99145.11;124876;1093;64364;-82
2021/06/08 00:47:35;;;;;;;19.83;16.23;;;;;;;13.51;71.04;99142.91;124848;1093;64264;-82
2021/06/08 00:50:04;;;;;;;19.43;17.47;;;;;;;13.42;71.22;99148.95;124892;1093;64284;-81
2021/06/08 00:52:31;;;;;;;21.27;18.00;;;;;;;13.35;71.46;99154.78;124874;1093;64303;-81
2021/06/08 00:54:59;;;;;;;17.90;16.00;;;;;;;13.30;71.57;99143.56;124837;1093;64606;-81
2021/06/08 00:57:26;;;;;;;18.07;15.73;;;;;;;13.25;71.59;99148.38;124953;1093;64287;-81
2021/06/08 00:59:53;;;;;;;19.40;17.07;;;;;;;13.23;71.88;99149.47;124849;1093;64341;-81
2021/06/08 01:02:21;;;;;;;20.20;16.53;;;;;;;13.22;72.34;99151.30;124934;1093;64279;-81
2021/06/08 01:04:48;;;;;;;18.90;15.77;;;;;;;13.21;72.08;99146.89;124908;1093;64294;-80
2021/06/08 01:07:15;;;;;;;18.63;16.50;;;;;;;13.20;72.08;99152.38;124890;1093;64368;-82
2021/06/08 01:09:43;;;;;;;17.23;15.43;;;;;;;13.20;72.30;99147.02;124877;1093;64275;-82
2021/06/08 01:12:10;;;;;;;17.53;15.73;;;;;;;13.18;72.42;99149.80;124899;1093;64187;-82
2021/06/08 01:14:37;;;;;;;18.23;16.37;;;;;;;13.17;72.52;99143.60;124844;1093;64267;-82
2021/06/08 01:17:04;;;;;;;18.40;16.50;;;;;;;13.18;72.65;99153.33;124867;1093;64223;-82
2021/06/08 01:19:32;;;;;;;19.50;16.85;;;;;;;13.18;72.49;99147.13;124842;1093;64267;-81
2021/06/08 01:21:59;;;;;;;19.73;17.67;;;;;;;13.16;72.56;99151.73;124843;1093;64370;-81
2021/06/08 01:24:26;;;;;;;17.87;16.10;;;;;;;13.14;72.74;99142.99;124866;1093;64290;-83
2021/06/08 01:26:54;;;;;;;19.30;17.20;;;;;;;13.09;72.75;99137.98;124911;1093;64191;-82
2021/06/08 01:29:24;;;;;;;17.80;15.93;;;;;;;13.04;72.86;99136.62;124925;1093;64227;-82
2021/06/08 01:31:58;;;;;;;18.10;15.40;;;;;;;12.96;72.74;99147.89;124803;1092;64267;-82
2021/06/08 01:34:26;;;;;;;21.23;19.03;;;;;;;12.92;73.03;99149.07;124898;1092;65525;-82
2021/06/08 01:36:55;;;;;;;20.20;18.10;;;;;;;12.94;73.40;99147.14;124861;1093;64192;-83
2021/06/08 01:39:23;;;;;;;19.97;17.37;;;;;;;12.95;73.29;99146.16;124951;1093;64818;-81
2021/06/08 01:41:51;;;;;;;20.60;18.40;;;;;;;12.86;73.12;99142.36;124834;1093;64280;-82
2021/06/08 01:44:19;;;;;;;20.67;18.53;;;;;;;12.83;73.35;99142.59;124794;1093;64434;-82
2021/06/08 01:46:46;;;;;;;22.73;19.10;;;;;;;12.82;73.41;99145.36;124856;1093;64412;-82
2021/06/08 01:49:14;;;;;;;20.70;18.20;;;;;;;12.80;73.51;99140.15;124837;1093;64268;-82
2021/06/08 01:52:14;;;;;;;20.77;18.57;;;;;;;12.79;73.70;99140.25;124899;1093;64222;-82
2021/06/08 01:54:44;;;;;;;22.10;19.10;;;;;;;12.78;73.81;99151.92;124844;1093;64276;-82
2021/06/08 01:57:30;;;;;;;19.93;16.80;;;;;;;12.78;73.96;99150.09;124867;1093;64306;-81
2021/06/08 02:00:32;;;;;;;19.27;17.23;;;;;;;12.75;73.85;99158.34;124917;1092;64380;-82
2021/06/08 02:03:24;;;;;;;19.77;17.83;;;;;;;12.76;74.14;99151.17;124926;1092;64216;-82
2021/06/08 02:05:52;;;;;;;23.45;20.25;;;;;;;12.76;74.15;99157.38;124903;1093;64341;-82
2021/06/08 02:08:44;;;;;;;21.23;18.97;;;;;;;12.77;74.08;99158.22;124828;1093;64264;-82
2021/06/08 02:11:30;;;;;;;19.40;17.37;;;;;;;12.76;74.25;99152.02;124906;1093;64306;-82
2021/06/08 02:14:21;;;;;;;19.03;17.07;;;;;;;12.73;74.15;99147.75;124856;1093;64280;-82
2021/06/08 02:17:02;;;;;;;19.93;17.30;;;;;;;12.74;74.23;99153.95;124860;1093;64241;-83
2021/06/08 02:19:32;;;;;;;19.07;17.17;;;;;;;12.73;74.20;99149.58;124889;1093;64295;-83
2021/06/08 02:22:06;;;;;;;21.63;18.10;;;;;;;12.71;74.18;99152.35;124890;1093;64287;-82
2021/06/08 02:24:35;;;;;;;20.77;18.57;;;;;;;12.71;74.46;99154.18;124881;1093;64289;-83
2021/06/08 02:27:06;;;;;;;21.30;18.70;;;;;;;12.76;74.55;99165.39;124877;1093;64297;-82
2021/06/08 02:29:37;;;;;;;21.37;18.33;;;;;;;12.77;74.39;99160.89;124860;1093;64191;-82
2021/06/08 02:32:07;;;;;;;21.80;18.87;;;;;;;12.81;74.51;99162.39;124916;1093;64386;-83
2021/06/08 02:34:36;;;;;;;19.17;17.07;;;;;;;12.82;74.25;99156.94;124892;1093;64210;-82
2021/06/08 02:37:05;;;;;;;18.53;16.63;;;;;;;12.79;74.18;99161.64;124861;1093;64361;-81
2021/06/08 02:39:33;;;;;;;17.83;16.03;;;;;;;12.72;74.21;99166.60;124839;1093;64405;-83
2021/06/08 02:42:01;;;;;;;17.13;15.50;;;;;;;12.66;74.03;99170.55;124877;1094;64268;-82
2021/06/08 02:44:30;;;;;;;16.93;15.23;;;;;;;12.62;74.13;99170.91;124845;1093;64319;-83
2021/06/08 02:46:58;;;;;;;18.00;16.13;;;;;;;12.59;74.06;99177.33;124928;1093;64287;-81
2021/06/08 02:49:27;;;;;;;18.40;16.53;;;;;;;12.56;74.09;99176.67;124852;1093;64186;-82
2021/06/08 02:51:56;;;;;;;17.35;15.55;;;;;;;12.56;74.06;99174.88;124898;1093;64191;-82
2021/06/08 02:54:23;;;;;;;18.90;17.10;;;;;;;12.62;74.28;99176.26;124863;1093;64290;-82
2021/06/08 02:56:51;;;;;;;17.70;15.77;;;;;;;12.65;74.05;99173.36;124889;1093;64368;-82
2021/06/08 02:59:20;;;;;;;18.93;16.93;;;;;;;12.67;74.24;99176.78;124878;1092;64246;-82
2021/06/08 03:01:54;;;;;;;18.70;16.90;;;;;;;12.68;74.21;99176.65;124874;1093;64296;-82
2021/06/08 03:04:24;;;;;;;19.20;17.13;;;;;;;12.72;74.21;99190.67;124853;1093;64440;-81
2021/06/08 03:06:59;;;;;;;21.00;18.90;;;;;;;12.73;74.20;99187.86;124918;1093;64264;-81
2021/06/08 03:09:38;;;;;;;20.27;18.07;;;;;;;12.76;74.32;99180.59;124906;1093;64290;-82
2021/06/08 03:12:10;;;;;;;20.07;17.97;;;;;;;12.80;74.20;99182.94;124826;1093;64319;-82
2021/06/08 03:14:42;;;;;;;18.77;16.73;;;;;;;12.85;74.11;99188.81;124854;1093;64389;-81
2021/06/08 03:17:11;;;;;;;20.57;18.53;;;;;;;12.92;74.13;99189.20;124869;1093;64370;-81
2021/06/08 03:19:41;;;;;;;19.40;16.65;;;;;;;13.01;74.03;99190.36;124928;1093;64290;-82
2021/06/08 03:22:13;;;;;;;19.53;17.43;;;;;;;13.09;74.13;99191.49;124892;1092;64274;-82
2021/06/08 03:24:43;;;;;;;18.90;16.83;;;;;;;13.52;73.83;99185.61;124848;1093;64287;-82
2021/06/08 03:27:13;;;;;;;18.68;16.60;;;;;;;14.61;72.80;99193.23;124952;1093;64245;-82
2021/06/08 03:29:42;;;;;;;18.20;16.50;;;;;;;15.66;70.93;99184.58;124894;1093;64267;-84
2021/06/08 03:32:14;;;;;;;20.80;17.80;;;;;;;16.60;69.27;99188.09;124869;1091;64229;-82
2021/06/08 03:34:42;;;;;;;18.63;16.70;;;;;;;17.42;67.74;99181.62;124969;1093;64264;-82
2021/06/08 03:37:10;;;;;;;18.23;16.43;;;;;;;18.20;66.51;99179.70;124847;1093;64309;-82
2021/06/08 03:39:39;;;;;;;19.00;17.30;;;;;;;18.97;65.16;99174.96;124866;1092;64385;-82
2021/06/08 03:42:08;;;;;;;17.97;16.30;;;;;;;19.68;63.64;99177.70;124850;1092;64294;-82
2021/06/08 03:44:36;;;;;;;20.70;16.80;;;;;;;20.34;62.29;99180.86;124902;1093;64303;-82
2021/06/08 03:47:03;;;;;;;17.63;16.03;;;;;;;21.08;61.45;99173.07;124932;1093;64216;-82
2021/06/08 03:49:32;;;;;;;17.53;16.03;;;;;;;21.72;59.69;99167.91;124890;1092;64245;-82
2021/06/08 03:52:00;;;;;;;17.77;16.17;;;;;;;22.06;57.95;99175.86;124930;1092;64268;-82
2021/06/08 03:54:27;;;;;;;17.10;15.50;;;;;;;22.43;56.68;99175.28;124876;1093;64307;-82
2021/06/08 03:56:57;;;;;;;17.63;16.03;;;;;;;22.78;55.73;99173.14;124859;1093;64265;-81
2021/06/08 03:59:28;;;;;;;17.90;16.23;;;;;;;23.19;55.05;99168.34;124912;1091;64184;-81
2021/06/08 04:05:38;;;;;;;15.83;14.63;;;;;;;24.13;52.49;99172.74;124846;1093;64242;-80
2021/06/08 04:08:09;;;;;;;15.07;13.57;;;;;;;24.51;51.55;99171.68;124870;1093;64405;-82
2021/06/08 04:10:38;;;;;;;16.60;15.10;;;;;;;24.81;50.51;99174.38;124886;1091;64191;-81
2021/06/08 04:13:07;;;;;;;15.43;14.03;;;;;;;25.08;49.82;99177.42;124933;1093;64264;-82
2021/06/08 04:15:35;;;;;;;16.10;14.70;;;;;;;25.31;49.14;99172.69;124864;1091;64290;-82
2021/06/08 04:18:09;;;;;;;16.47;14.97;;;;;;;25.35;48.45;99173.98;124864;1093;64248;-81
2021/06/08 04:20:37;;;;;;;17.57;15.70;;;;;;;25.42;48.18;99167.77;125489;1091;64294;-79
2021/06/08 04:23:05;;;;;;;15.90;14.60;;;;;;;25.58;47.61;99175.69;124923;1093;64312;-82
2021/06/08 04:25:32;;;;;;;15.43;13.97;;;;;;;25.92;47.04;99168.68;125036;1093;64194;-87
2021/06/08 04:28:00;;;;;;;14.97;13.70;;;;;;;25.90;46.65;99168.86;124959;1093;64284;-88
2021/06/08 04:30:27;;;;;;;16.47;14.87;;;;;;;25.90;45.79;99177.05;124894;1092;64341;-83
2021/06/08 04:32:55;;;;;;;16.75;15.35;;;;;;;26.05;45.58;99174.25;125034;1093;64279;-89
2021/06/08 04:35:22;;;;;;;21.70;19.90;;;;;;;26.25;45.52;99169.78;124874;1093;64345;-85
2021/06/08 04:37:49;;;;;;;20.33;18.33;;;;;;;26.46;44.62;99178.92;124995;1093;64279;-85
2021/06/08 04:40:17;;;;;;;17.60;16.20;;;;;;;26.62;44.22;99169.59;124979;1093;64184;-85
2021/06/08 04:42:48;;;;;;;14.20;12.80;;;;;;;26.79;43.77;99175.58;124975;1093;64284;-86
2021/06/08 04:45:16;;;;;;;12.07;10.87;;;;;;;26.96;43.15;99176.90;125014;1093;64395;-87
2021/06/08 04:47:44;;;;;;;12.63;11.37;;;;;;;27.06;42.47;99177.36;124914;1093;64223;-86
2021/06/08 04:50:15;;;;;;;12.17;10.97;;;;;;;27.06;42.31;99180.09;124897;1092;64380;-85
2021/06/08 04:52:43;;;;;;;11.93;10.87;;;;;;;27.10;41.49;99172.34;124960;1093;64244;-85
2021/06/08 04:55:12;;;;;;;10.53;9.63;;;;;;;27.18;41.84;99180.40;125010;1092;64235;-87
2021/06/08 04:57:39;;;;;;;9.90;9.10;;;;;;;27.34;41.63;99173.70;124971;1092;64354;-85
2021/06/08 05:00:14;;;;;;;9.73;8.90;;;;;;;27.47;40.83;99178.38;124991;1093;64316;-85
2021/06/08 05:03:05;;;;;;;9.63;8.67;;;;;;;27.49;40.54;99174.38;124975;1093;64367;-86
2021/06/08 05:05:35;;;;;;;9.40;8.50;;;;;;;27.64;40.12;99176.91;124977;1093;64260;-85
2021/06/08 05:08:11;;;;;;;10.25;8.30;;;;;;;27.66;39.71;99182.19;124982;1093;64276;-87
2021/06/08 05:10:43;;;;;;;9.57;8.77;;;;;;;27.60;39.30;99185.77;124913;1093;64271;-88
2021/06/08 05:13:12;;;;;;;9.47;8.67;;;;;;;27.48;38.67;99178.15;124950;1093;64735;-85
2021/06/08 05:15:41;;;;;;;10.50;9.60;;;;;;;27.53;39.22;99174.80;124988;1093;64194;-85
2021/06/08 05:18:11;;;;;;;10.87;8.03;;;;;;;27.63;38.93;99171.66;125034;1092;64273;-86
2021/06/08 05:20:41;;;;;;;11.67;10.63;;;;;;;27.71;38.81;99177.77;125042;1093;64264;-85
2021/06/08 05:23:09;;;;;;;10.95;9.85;;;;;;;27.88;38.54;99180.95;125002;1093;64297;-86
2021/06/08 05:25:39;;;;;;;10.20;9.40;;;;;;;27.98;38.70;99186.86;124986;1093;64361;-86
2021/06/08 05:28:07;;;;;;;10.77;9.77;;;;;;;28.12;38.33;99182.25;125061;1093;64185;-86
2021/06/08 05:30:37;;;;;;;10.03;9.03;;;;;;;28.18;37.97;99183.30;124991;1093;64268;-86
2021/06/08 05:33:04;;;;;;;11.35;10.30;;;;;;;28.20;37.98;99175.67;125055;1093;64312;-85
2021/06/08 05:35:32;;;;;;;9.90;9.10;;;;;;;28.16;37.42;99185.39;125029;1092;64868;-87
2021/06/08 05:38:07;;;;;;;9.80;8.90;;;;;;;28.19;37.33;99180.32;125044;1093;64287;-85
2021/06/08 05:40:37;;;;;;;11.60;9.27;;;;;;;28.19;37.53;99182.22;125228;1092;64236;-85
2021/06/08 05:43:05;;;;;;;10.37;9.37;;;;;;;28.23;37.51;99181.59;125262;1093;64218;-86
2021/06/08 05:45:34;;;;;;;10.57;9.63;;;;;;;28.40;37.23;99186.63;125030;1093;64188;-85
2021/06/08 05:48:03;;;;;;;11.00;9.93;;;;;;;28.52;37.31;99186.86;124937;1093;64267;-85
2021/06/08 05:50:30;;;;;;;10.43;9.35;;;;;;;28.47;37.09;99189.41;124979;1093;64265;-86
2021/06/08 05:53:00;;;;;;;14.47;10.80;;;;;;;28.09;37.43;99187.29;124899;1093;64268;-85
2021/06/08 05:55:32;;;;;;;11.90;10.83;;;;;;;27.91;37.67;99190.66;125064;1093;64367;-83
2021/06/08 05:57:59;;;;;;;12.07;10.97;;;;;;;27.88;37.88;99183.70;124972;1093;64718;-83
2021/06/08 06:00:27;;;;;;;12.37;10.50;;;;;;;28.01;38.17;99177.38;124971;1093;64269;-83
2021/06/08 06:02:56;;;;;;;14.70;10.60;;;;;;;28.10;37.87;99172.55;124952;1094;64319;-83
2021/06/08 06:05:25;;;;;;;12.13;10.87;;;;;;;28.15;37.59;99180.98;125041;1092;64364;-83
2021/06/08 06:07:53;;;;;;;14.87;10.13;;;;;;;28.19;37.06;99187.70;124906;1092;64361;-85
2021/06/08 06:10:21;;;;;;;11.33;10.23;;;;;;;28.04;37.46;99189.81;125049;1093;64351;-84
2021/06/08 06:12:52;;;;;;;11.40;10.30;;;;;;;28.07;38.01;99183.91;125084;1093;64261;-84
2021/06/08 06:15:21;;;;;;;11.60;10.47;;;;;;;28.11;37.73;99176.97;125090;1093;64265;-84
2021/06/08 06:17:49;;;;;;;;;;;;;;;28.26;38.15;99185.81;125147;1093;64280;-84
2021/06/08 06:20:16;;;;;;;11.43;10.43;;;;;;;28.37;38.12;99187.06;124938;1093;64272;-84
2021/06/08 06:22:43;;;;;;;13.00;11.07;;;;;;;28.44;38.13;99179.70;124914;1093;64287;-84
2021/06/08 06:25:13;;;;;;;11.13;10.07;;;;;;;28.55;38.24;99178.20;124981;1093;64280;-84
2021/06/08 06:27:42;;;;;;;12.00;10.80;;;;;;;28.59;38.50;99184.92;124887;1093;64248;-85
2021/06/08 06:30:11;;;;;;;;;;;;;;;28.63;38.44;99186.20;124884;1093;64399;-84
2021/06/08 06:32:38;;;;;;;13.80;10.88;;;;;;;28.58;37.99;99184.09;125014;1093;64734;-84
2021/06/08 06:35:08;;;;;;;11.77;10.50;;;;;;;28.39;38.08;99177.56;124955;1093;64395;-83
2021/06/08 06:37:38;;;;;;;13.27;12.07;;;;;;;28.38;37.71;99169.54;125137;1094;64431;-83
2021/06/08 06:40:10;;;;;;;11.80;10.70;;;;;;;28.04;37.84;99170.64;124977;1093;64270;-84
2021/06/08 06:42:42;;;;;;;12.70;11.23;;;;;;;27.71;38.40;99179.67;125037;1093;64281;-83
2021/06/08 06:45:14;;;;;;;12.93;11.63;;;;;;;27.71;39.07;99179.67;125032;1093;64290;-84
2021/06/08 06:47:42;;;;;;;14.73;10.80;;;;;;;27.91;39.06;99180.56;124998;1093;64232;-83
2021/06/08 06:50:11;;;;;;;12.43;11.23;;;;;;;28.01;39.33;99169.16;125001;1093;64267;-83
2021/06/08 06:52:40;;;;;;;14.18;11.53;;;;;;;28.30;39.53;99176.09;125018;1093;64201;-83
2021/06/08 06:55:10;;;;;;;12.27;10.80;;;;;;;28.34;39.20;99177.36;124994;1093;64271;-85
2021/06/08 06:57:41;;;;;;;13.30;10.53;;;;;;;28.07;38.76;99176.55;125090;1093;64187;-83
2021/06/08 07:00:09;;;;;;;13.20;11.73;;;;;;;27.84;39.59;99181.61;125097;1093;64367;-83
2021/06/08 07:02:39;;;;;;;18.07;12.23;;;;;;;28.06;40.26;99174.85;125436;1093;64291;-83
2021/06/08 07:05:09;;;;;;;13.03;11.00;;;;;;;28.33;39.67;99181.17;125075;1093;64268;-84
2021/06/08 07:07:38;;;;;;;12.33;11.13;;;;;;;28.26;39.66;99174.02;125040;1093;64217;-83
2021/06/08 07:10:09;;;;;;;13.08;11.65;;;;;;;28.17;40.20;99182.45;124969;1094;64312;-84
2021/06/08 07:12:40;;;;;;;13.05;11.40;;;;;;;28.29;39.51;99187.28;124946;1093;64216;-84
2021/06/08 07:15:09;;;;;;;11.33;10.33;;;;;;;28.31;39.99;99180.53;125012;1093;64733;-83
2021/06/08 07:17:38;;;;;;;13.60;12.37;;;;;;;28.35;39.66;99181.78;124967;1093;64303;-82
2021/06/08 07:20:10;;;;;;;13.60;11.37;;;;;;;28.20;38.74;99181.16;125020;1092;64396;-83
2021/06/08 07:22:40;;;;;;;13.27;11.70;;;;;;;27.89;39.63;99177.19;125148;1093;64267;-83
2021/06/08 07:25:08;;;;;;;11.63;10.53;;;;;;;27.78;39.70;99181.36;125180;1093;64629;-84
2021/06/08 07:27:36;;;;;;;11.35;10.10;;;;;;;27.56;39.68;99179.84;125119;1093;64280;-84
2021/06/08 07:30:07;;;;;;;12.83;11.47;;;;;;;27.18;40.64;99185.88;125050;1093;64305;-84
2021/06/08 07:33:00;;;;;;;12.23;10.93;;;;;;;26.99;41.47;99183.85;125042;1093;64185;-84
2021/06/08 07:35:49;;;;;;;12.80;11.50;;;;;;;26.71;41.37;99193.00;125059;1092;64869;-83
2021/06/08 07:38:33;;;;;;;12.63;10.57;;;;;;;26.52;41.78;99186.38;125076;1093;64399;-83
2021/06/08 07:41:11;;;;;;;12.25;11.05;;;;;;;26.37;42.22;99191.91;125049;1093;64342;-84
2021/06/08 07:43:44;;;;;;;15.57;11.43;;;;;;;26.27;42.90;99185.95;125008;1093;64260;-83
2021/06/08 07:46:15;;;;;;;13.70;12.40;;;;;;;26.27;42.78;99191.42;125037;1093;64210;-83
2021/06/08 07:48:47;;;;;;;12.80;11.43;;;;;;;26.15;43.05;99187.56;125038;1093;64241;-82
2021/06/08 07:51:16;;;;;;;19.15;13.55;;;;;;;26.18;43.10;99187.16;125037;1092;64288;-82
2021/06/08 07:53:44;;;;;;;13.00;11.87;;;;;;;26.01;42.58;99186.59;125011;1092;64276;-83
2021/06/08 07:56:12;;;;;;;13.77;11.63;;;;;;;25.95;43.17;99185.50;124999;1093;64260;-83
2021/06/08 07:58:40;;;;;;;21.43;12.87;;;;;;;26.05;43.54;99188.73;125045;1093;64264;-83
2021/06/08 08:01:10;;;;;;;14.30;12.37;;;;;;;25.96;43.16;99181.75;125032;1093;64256;-84
2021/06/08 08:03:39;;;;;;;12.80;11.47;;;;;;;25.91;43.89;99186.95;125048;1093;64220;-85
2021/06/08 08:06:12;;;;;;;13.47;12.07;;;;;;;25.92;44.07;99185.91;124977;1093;64319;-84
2021/06/08 08:08:40;;;;;;;13.07;11.97;;;;;;;25.85;43.70;99190.45;124985;1093;64692;-84
2021/06/08 08:11:11;;;;;;;13.20;11.87;;;;;;;25.83;44.26;99185.17;124909;1093;64248;-83
2021/06/08 08:13:41;;;;;;;14.03;12.40;;;;;;;25.93;44.36;99186.73;125086;1093;64361;-83
2021/06/08 08:16:11;;;;;;;12.50;10.90;;;;;;;25.74;43.22;99186.33;125026;1093;64271;-83
2021/06/08 08:18:40;;;;;;;13.03;11.60;;;;;;;25.73;43.76;99187.39;125021;1093;64242;-84
2021/06/08 08:21:10;;;;;;;14.05;11.20;;;;;;;25.88;44.32;99178.30;125049;1093;64217;-84
2021/06/08 08:23:39;;;;;;;13.00;11.67;;;;;;;26.06;44.43;99181.38;125031;1093;64221;-84
2021/06/08 08:26:09;;;;;;;12.50;11.37;;;;;;;26.15;44.50;99185.67;125028;1093;64332;-83
2021/06/08 08:28:38;;;;;;;14.30;11.77;;;;;;;26.31;44.74;99179.06;125219;1093;64238;-83
2021/06/08 08:31:15;;;;;;;13.48;11.95;;;;;;;26.46;44.50;99184.39;125058;1092;64338;-83
2021/06/08 08:33:44;;;;;;;12.67;11.37;;;;;;;26.50;44.39;99183.80;125006;1093;64270;-84
2021/06/08 08:36:12;;;;;;;15.50;12.30;;;;;;;26.52;43.97;99191.84;125103;1092;64236;-84
2021/06/08 08:38:39;;;;;;;12.30;10.93;;;;;;;26.60;43.99;99177.17;125127;1093;64368;-82
2021/06/08 08:41:08;;;;;;;12.03;10.20;;;;;;;26.63;43.52;99172.13;124957;1093;64404;-83
2021/06/08 08:43:37;;;;;;;11.70;10.70;;;;;;;26.73;43.54;99179.14;125045;1093;64351;-83
2021/06/08 08:46:04;;;;;;;12.00;10.70;;;;;;;26.86;43.25;99180.03;124956;1093;64291;-84
2021/06/08 08:48:33;;;;;;;9.73;8.83;;;;;;;27.02;43.14;99173.37;125261;1093;64306;-82
2021/06/08 08:51:00;;;;;;;11.50;8.35;;;;;;;27.08;43.03;99177.17;126360;1093;64257;-83
2021/06/08 08:53:30;;;;;;;14.20;9.23;;;;;;;27.08;42.94;99178.01;126075;1093;64233;-83
2021/06/08 08:55:57;;;;;;;10.37;9.37;;;;;;;27.18;42.13;99169.45;125196;1093;64303;-84
2021/06/08 08:58:27;;;;;;;9.37;8.47;;;;;;;27.29;42.30;99168.01;124959;1093;64268;-83
2021/06/08 09:00:57;;;;;;;10.87;7.90;;;;;;;27.36;41.61;99168.88;125065;1093;64268;-83
2021/06/08 09:03:25;;;;;;;22.93;8.25;;;;;;;27.40;41.31;99169.30;125403;1093;64268;-83
2021/06/08 09:05:59;;;;;;;9.53;7.03;;;;;;;27.52;41.11;99160.27;126033;1093;64284;-84
2021/06/08 09:08:27;;;;;;;10.90;8.33;;;;;;;27.66;40.30;99163.02;125993;1093;64399;-82
2021/06/08 09:10:55;;;;;;;8.93;7.13;;;;;;;27.76;40.24;99167.03;124979;1093;64284;-83
2021/06/08 09:13:22;;;;;;;8.10;7.13;;;;;;;27.79;39.14;99169.34;125592;1093;64241;-84
2021/06/08 09:15:50;;;;;;;8.30;7.60;;;;;;;27.77;39.32;99156.91;126195;1093;64271;-84
2021/06/08 09:18:19;;;;;;;8.87;6.47;;;;;;;27.79;38.51;99163.86;126015;1093;64367;-84
2021/06/08 09:20:48;;;;;;;10.47;8.43;;;;;;;27.90;38.33;99164.33;126139;1093;64316;-83
2021/06/08 09:23:25;;;;;;;5.77;5.20;;;;;;;27.98;37.85;99153.98;126122;1092;63010;-83
2021/06/08 09:25:53;;;;;;;9.67;5.20;;;;;;;27.91;36.94;99147.69;126201;1093;64268;-83
2021/06/08 09:28:36;;;;;;;6.60;6.05;;;;;;;27.85;35.67;99164.95;126014;1093;64159;-83
2021/06/08 09:31:23;;;;;;;7.17;6.30;;;;;;;27.66;35.28;99155.64;125919;1092;64242;-84
2021/06/08 09:33:52;;;;;;;7.17;6.47;;;;;;;27.64;34.43;99156.91;126069;1092;64300;-83
2021/06/08 09:36:21;;;;;;;;;;;;;;;27.61;34.94;99157.33;126121;1092;64278;-82
2021/06/08 09:38:53;;;;;;;6.00;5.40;;;;;;;27.62;33.09;99148.05;126044;1093;64191;-83
2021/06/08 09:41:49;;;;;;;7.90;6.20;;;;;;;27.42;33.32;99145.30;126036;1093;64294;-83
2021/06/08 09:44:20;;;;;;;6.43;5.90;;;;;;;27.41;33.52;99143.59;126264;1093;64268;-84
2021/06/08 09:46:59;;;;;;;7.00;6.30;;;;;;;27.68;33.72;99144.49;126046;1093;64348;-83
2021/06/08 09:49:26;;;;;;;6.35;5.75;;;;;;;27.95;33.42;99148.10;126168;1093;64284;-84
2021/06/08 09:52:07;;;;;;;7.63;5.67;;;;;;;28.10;33.17;99147.89;125924;1093;64188;-84
2021/06/08 09:54:43;;;;;;;6.87;5.43;;;;;;;28.13;31.12;99145.56;126234;1093;64280;-84
2021/06/08 09:57:15;;;;;;;5.80;5.20;;;;;;;28.16;31.86;99136.91;125955;1093;64265;-83
2021/06/08 09:59:51;;;;;;;6.70;5.83;;;;;;;28.41;31.76;99136.21;125612;1093;64220;-83
2021/06/08 10:02:50;;;;;;;8.70;6.10;;;;;;;28.64;31.20;99141.24;125101;1093;64407;-83
2021/06/08 10:05:28;;;;;;;7.20;6.47;;;;;;;28.68;31.11;99137.03;124903;1093;64268;-83
2021/06/08 10:07:58;;;;;;;6.23;5.60;;;;;;;28.61;29.95;99130.71;124919;1093;64303;-83
2021/06/08 10:10:35;;;;;;;6.03;5.43;;;;;;;28.47;30.01;99134.56;124961;1093;64535;-83
2021/06/08 10:13:12;;;;;;;6.05;5.50;;;;;;;28.52;30.19;99138.34;125042;1093;64415;-84
2021/06/08 10:15:55;;;;;;;6.97;6.33;;;;;;;28.27;30.19;99134.57;125019;1093;64273;-83
2021/06/08 10:18:23;;;;;;;6.90;5.60;;;;;;;28.08;30.16;99131.65;125019;1093;64217;-84
2021/06/08 10:20:53;;;;;;;8.80;5.73;;;;;;;27.97;30.54;99135.04;125006;1093;64156;-84
2021/06/08 10:23:29;;;;;;;6.37;5.87;;;;;;;27.99;31.17;99121.98;124998;1093;64239;-84
2021/06/08 10:25:59;;;;;;;8.20;5.67;;;;;;;28.07;31.04;99119.02;125031;1093;64399;-84
2021/06/08 10:28:28;;;;;;;5.90;5.30;;;;;;;28.32;31.80;99130.13;124987;1093;64265;-83
2021/06/08 10:30:57;;;;;;;6.70;5.40;;;;;;;28.55;31.12;99126.11;125036;1093;64285;-83
2021/06/08 10:33:26;;;;;;;6.20;5.63;;;;;;;28.80;31.26;99120.72;125073;1092;64265;-83
2021/06/08 10:35:54;;;;;;;5.80;5.17;;;;;;;28.93;31.00;99128.05;125008;1093;64244;-83
2021/06/08 10:38:23;;;;;;;6.07;5.57;;;;;;;29.02;30.03;99119.36;125128;1092;64264;-83
2021/06/08 10:40:53;;;;;;;5.50;5.00;;;;;;;29.17;30.09;99119.08;125073;1093;64280;-84
2021/06/08 10:43:23;;;;;;;7.35;5.60;;;;;;;29.34;30.15;99124.06;125061;1093;64239;-83
2021/06/08 10:45:54;;;;;;;6.73;6.13;;;;;;;29.45;29.65;99118.69;125004;1093;64290;-84
2021/06/08 10:48:37;;;;;;;7.70;6.43;;;;;;;29.72;30.87;99107.52;124994;1091;64197;-84
2021/06/08 10:51:13;;;;;;;5.97;5.27;;;;;;;30.08;30.43;99117.77;124990;1093;64284;-83
2021/06/08 10:53:48;;;;;;;6.07;5.53;;;;;;;30.44;30.50;99116.17;125011;1092;64724;-83
2021/06/08 10:56:22;;;;;;;7.67;6.00;;;;;;;30.71;28.77;99108.43;125036;1093;64273;-84
2021/06/08 10:59:12;;;;;;;8.00;5.45;;;;;;;30.62;28.05;99107.05;125027;1093;64696;-83
2021/06/08 11:01:43;;;;;;;6.35;5.48;;;;;;;30.79;27.46;99094.36;124990;1093;64316;-84
2021/06/08 11:04:13;;;;;;;7.77;5.93;;;;;;;30.73;27.15;99098.04;124993;1093;64293;-84
2021/06/08 11:06:50;;;;;;;8.47;5.77;;;;;;;30.60;27.38;99104.55;124981;1093;64277;-84
2021/06/08 11:09:29;;;;;;;8.10;5.93;;;;;;;30.21;27.10;99107.72;124921;1093;64364;-86
2021/06/08 11:12:07;;;;;;;9.15;5.38;;;;;;;29.73;26.53;99117.47;125013;1093;64230;-84
2021/06/08 11:17:11;;;;;;;6.97;5.60;;;;;;;29.41;27.30;99095.50;124930;1093;64516;-83
2021/06/08 11:19:40;;;;;;;;;;;;;;;29.32;28.20;99091.33;124961;1092;64268;-83
2021/06/08 11:22:08;;;;;;;7.90;5.60;;;;;;;29.60;28.74;99095.57;125020;1093;64280;-83
2021/06/08 11:24:38;;;;;;;6.07;5.50;;;;;;;29.82;27.90;99094.13;125106;1093;64259;-83
2021/06/08 11:27:07;;;;;;;6.83;5.63;;;;;;;29.79;27.45;99093.75;125115;1093;64191;-83
2021/06/08 11:30:00;;;;;;;9.00;5.70;;;;;;;29.83;27.84;99097.70;125072;1093;64271;-83
2021/06/08 11:32:31;;;;;;;6.77;4.87;;;;;;;29.62;27.24;99091.53;124978;1093;64233;-84
2021/06/08 11:35:06;;;;;;;9.67;5.33;;;;;;;29.21;26.59;99090.14;125331;1093;64271;-83
2021/06/08 11:37:55;;;;;;;5.40;4.90;;;;;;;28.74;26.65;99092.26;125276;1093;64265;-83